Terminal Aerodrome Forecast
Issued by NWS

Home | Current Version | Previous Version | Text Only | Print | Product List | Glossary On
Versions: 1 2 3 4 5 6 7 8 9 10 11 12 13 14 15 16 17 18 19 20 21 22 23 24 25 26 27 28 29 30 31 32 33 34 35
406
FTUS45 KBOI 241847 AAA
TAFMYL
TAF AMD
KMYL 241847Z 2419/2518 16012G20KT 3SM -SN OVC015
      TEMPO 2419/2423 1SM -SN BKN009
     FM242300 16010KT 2SM -SN SCT009 OVC020
     FM250500 VRB03KT 6SM BR FEW009 BKN040
     FM251600 VRB03KT P6SM BKN050=

USA.gov is the U.S. government's official web portal to all federal, state and local government web resources and services.